Time;durP1;ratioP1;P1;durP2;ratioP2;P2;SDS_P1;SDS_P2;PMS_P1;PMS_P2;Temp;Humidity;BMP_temperature;BMP_pressure;BME280_temperature;BME280_humidity;BME280_pressure;Samples;Min_cycle;Max_cycle;Signal;HPM_P1;HPM_P2
2022/01/31 00:01:35;;;;;;;1.33;0.70;;;17.30;53.00;;;;;;5127370;27;46482;-89
2022/01/31 00:04:08;;;;;;;1.60;0.60;;;18.20;51.70;;;;;;5126157;27;45250;-88
2022/01/31 00:06:38;;;;;;;2.08;0.80;;;17.30;49.10;;;;;;5125778;27;44773;-89
2022/01/31 00:09:13;;;;;;;1.63;0.88;;;17.30;51.50;;;;;;5125625;27;45319;-88
2022/01/31 00:11:44;;;;;;;2.20;0.88;;;17.90;50.00;;;;;;5107277;27;45655;-88
2022/01/31 00:14:30;;;;;;;2.10;0.60;;;17.20;52.20;;;;;;5125669;27;45225;-87
2022/01/31 00:16:59;;;;;;;2.75;0.75;;;17.60;52.70;;;;;;5125079;27;45207;-88
2022/01/31 00:19:29;;;;;;;2.05;0.50;;;17.10;49.60;;;;;;5125949;27;45436;-87
2022/01/31 00:21:59;;;;;;;1.33;0.80;;;17.20;51.00;;;;;;5126107;27;47581;-88
2022/01/31 00:24:33;;;;;;;1.75;0.80;;;17.10;50.60;;;;;;5126181;27;45176;-88
2022/01/31 00:27:00;;;;;;;2.33;0.90;;;17.30;50.00;;;;;;5125909;27;44828;-88
2022/01/31 00:29:31;;;;;;;1.50;0.75;;;17.10;52.20;;;;;;5122009;27;44968;-87
2022/01/31 00:32:03;;;;;;;2.55;0.88;;;17.20;49.10;;;;;;5131987;27;45889;-88
2022/01/31 00:34:33;;;;;;;1.33;0.63;;;17.40;50.40;;;;;;5126081;27;45376;-87
2022/01/31 00:37:03;;;;;;;2.35;0.85;;;17.30;51.30;;;;;;5124710;27;45346;-90
2022/01/31 00:39:36;;;;;;;1.63;0.68;;;17.10;52.10;;;;;;5108609;27;45342;-87
2022/01/31 00:42:07;;;;;;;2.72;0.60;;;16.20;50.10;;;;;;5107099;27;46430;-88
2022/01/31 00:44:45;;;;;;;1.25;0.70;;;17.30;51.30;;;;;;5108035;27;45272;-88
2022/01/31 00:47:19;;;;;;;2.85;0.75;;;18.40;53.50;;;;;;5125636;27;44805;-87
2022/01/31 00:50:06;;;;;;;1.20;0.60;;;19.20;53.30;;;;;;5114589;27;45457;-87
2022/01/31 00:52:35;;;;;;;1.60;0.70;;;16.60;49.50;;;;;;5108276;28;46750;-87
2022/01/31 00:55:14;;;;;;;3.90;1.02;;;17.50;52.20;;;;;;5112915;27;45166;-87
2022/01/31 00:57:44;;;;;;;2.08;0.70;;;17.00;49.20;;;;;;5122988;27;44666;-88
2022/01/31 01:00:19;;;;;;;1.92;0.50;;;17.00;50.30;;;;;;5139071;27;45202;-87
2022/01/31 01:02:48;;;;;;;1.40;0.70;;;17.60;49.60;;;;;;5150432;27;47027;-87
2022/01/31 01:08:03;;;;;;;1.83;0.50;;;17.60;49.70;;;;;;5128637;27;45422;-87
2022/01/31 01:10:35;;;;;;;1.85;0.88;;;17.20;52.90;;;;;;5129726;27;44775;-87
2022/01/31 01:13:05;;;;;;;3.25;1.10;;;17.20;51.50;;;;;;5111387;27;45783;-87
2022/01/31 01:15:34;;;;;;;2.63;0.77;;;17.30;49.20;;;;;;5129325;27;45442;-87
2022/01/31 01:18:06;;;;;;;2.25;0.70;;;17.30;52.30;;;;;;5129307;27;45350;-88
2022/01/31 01:20:34;;;;;;;1.42;0.70;;;17.10;49.10;;;;;;5128599;27;45298;-87
2022/01/31 01:23:03;;;;;;;1.65;0.80;;;16.70;49.80;;;;;;5129245;27;47395;-87
2022/01/31 01:25:41;;;;;;;1.02;0.45;;;17.30;52.10;;;;;;5128399;27;45186;-87
2022/01/31 01:28:15;;;;;;;1.00;0.55;;;17.50;50.20;;;;;;5129681;27;45204;-87
2022/01/31 01:30:46;;;;;;;1.25;0.70;;;16.80;50.60;;;;;;5129282;27;45453;-87
2022/01/31 01:33:22;;;;;;;0.82;0.43;;;17.30;49.20;;;;;;5129757;27;46973;-88
2022/01/31 01:35:53;;;;;;;1.27;0.45;;;17.00;49.30;;;;;;5120661;27;45160;-87
2022/01/31 01:38:28;;;;;;;1.20;0.55;;;18.10;51.70;;;;;;5128901;27;45089;-87
2022/01/31 01:40:59;;;;;;;1.88;0.70;;;17.20;51.60;;;;;;5111867;27;45243;-87
2022/01/31 01:43:29;;;;;;;1.17;0.50;;;18.90;53.00;;;;;;5130373;27;47614;-87
2022/01/31 01:46:03;;;;;;;3.70;0.77;;;16.40;50.30;;;;;;5125213;27;45062;-86
2022/01/31 01:48:37;;;;;;;1.00;0.57;;;17.40;52.90;;;;;;5130208;27;45324;-86
2022/01/31 01:51:08;;;;;;;1.42;0.68;;;17.30;49.50;;;;;;5130178;27;45119;-87
2022/01/31 01:53:40;;;;;;;1.25;0.43;;;17.40;51.00;;;;;;5126554;27;47401;-86
2022/01/31 01:56:27;;;;;;;0.75;0.50;;;17.40;50.50;;;;;;5129765;27;44663;-86
2022/01/31 01:58:55;;;;;;;1.90;0.68;;;17.30;49.30;;;;;;5129715;27;45057;-86
2022/01/31 02:01:28;;;;;;;1.33;0.70;;;17.20;52.50;;;;;;5111211;27;44961;-86
2022/01/31 02:04:00;;;;;;;0.93;0.40;;;17.00;50.90;;;;;;5111731;27;45606;-85
2022/01/31 02:06:28;;;;;;;2.03;0.60;;;17.30;50.40;;;;;;5129638;27;46991;-86
2022/01/31 02:09:03;;;;;;;1.27;0.65;;;17.60;52.40;;;;;;5130005;27;44734;-86
2022/01/31 02:11:42;;;;;;;1.17;0.60;;;17.10;49.20;;;;;;5112358;27;45869;-86
2022/01/31 02:14:12;;;;;;;1.20;0.70;;;19.10;53.30;;;;;;5130277;27;45611;-87
2022/01/31 02:16:44;;;;;;;0.68;0.50;;;16.80;51.00;;;;;;5094663;27;44651;-86
2022/01/31 02:19:26;;;;;;;1.40;0.60;;;16.60;48.80;;;;;;5128091;27;45218;-87
2022/01/31 02:22:02;;;;;;;0.60;0.43;;;17.40;52.20;;;;;;5129430;27;45180;-86
2022/01/31 02:24:35;;;;;;;1.77;0.60;;;17.10;53.20;;;;;;5129632;27;45319;-86
2022/01/31 02:27:07;;;;;;;2.83;0.88;;;17.20;52.60;;;;;;5121081;27;45278;-86
2022/01/31 02:29:37;;;;;;;1.00;0.50;;;17.40;51.10;;;;;;5128688;27;45100;-86
2022/01/31 02:32:09;;;;;;;1.05;0.50;;;17.50;52.90;;;;;;5111667;27;45348;-87
2022/01/31 02:34:37;;;;;;;1.40;0.60;;;17.60;52.80;;;;;;5129461;27;45595;-86
2022/01/31 02:37:18;;;;;;;0.98;0.43;;;17.50;52.10;;;;;;5129000;27;45041;-86
2022/01/31 02:39:47;;;;;;;1.20;0.60;;;17.40;50.30;;;;;;5128614;27;45167;-87
2022/01/31 02:42:17;;;;;;;2.25;0.88;;;17.30;51.30;;;;;;5129426;27;44952;-86
2022/01/31 02:44:47;;;;;;;2.63;0.50;;;17.30;50.20;;;;;;5127207;27;45755;-86
2022/01/31 02:47:24;;;;;;;1.55;0.57;;;17.30;53.30;;;;;;5116577;27;44844;-87
2022/01/31 02:49:57;;;;;;;1.30;0.60;;;19.20;55.90;;;;;;5128790;27;45280;-87
2022/01/31 02:52:31;;;;;;;2.95;0.68;;;17.20;53.10;;;;;;5127711;27;45248;-86
2022/01/31 02:55:07;;;;;;;1.50;0.40;;;19.40;54.30;;;;;;5126005;27;45541;-89
2022/01/31 02:57:36;;;;;;;3.63;0.70;;;17.10;52.20;;;;;;5108799;27;45322;-88
2022/01/31 03:00:18;;;;;;;1.08;0.60;;;17.20;52.90;;;;;;5114067;27;44896;-87
2022/01/31 03:05:28;;;;;;;1.08;0.47;;;17.10;52.40;;;;;;5208082;22;45692;-89
2022/01/31 03:08:05;;;;;;;1.58;0.70;;;17.20;53.90;;;;;;5096064;27;44806;-89
2022/01/31 03:10:33;;;;;;;1.17;0.60;;;17.00;50.90;;;;;;5114091;27;44822;-90
2022/01/31 03:13:01;;;;;;;1.00;0.50;;;17.40;54.00;;;;;;5113142;27;44886;-90
2022/01/31 03:15:31;;;;;;;1.55;0.40;;;16.80;52.90;;;;;;5111472;27;45690;-89
2022/01/31 03:17:59;;;;;;;1.27;0.50;;;17.20;53.50;;;;;;5111940;27;45144;-89
2022/01/31 03:20:29;;;;;;;0.77;0.30;;;16.90;52.90;;;;;;5111791;27;44790;-89
2022/01/31 03:23:02;;;;;;;1.17;0.65;;;17.10;52.10;;;;;;5090456;28;45086;-89
2022/01/31 03:25:35;;;;;;;1.33;0.63;;;17.10;52.20;;;;;;5089431;28;47597;-88
2022/01/31 03:28:04;;;;;;;2.92;0.55;;;17.00;53.10;;;;;;5090340;28;45479;-89
2022/01/31 03:30:39;;;;;;;1.55;0.35;;;17.20;54.40;;;;;;5104263;27;44702;-88
2022/01/31 03:33:10;;;;;;;0.68;0.40;;;16.60;52.90;;;;;;5092881;28;44868;-88
2022/01/31 03:35:38;;;;;;;2.53;0.40;;;16.70;51.00;;;;;;5109116;28;45673;-88
2022/01/31 03:38:16;;;;;;;1.40;0.50;;;15.50;50.50;;;;;;5108087;28;45215;-87
2022/01/31 03:40:44;;;;;;;0.60;0.43;;;17.20;55.40;;;;;;5107258;27;45156;-87
2022/01/31 03:43:14;;;;;;;0.65;0.40;;;16.30;54.20;;;;;;5108561;28;45173;-87
2022/01/31 03:45:46;;;;;;;1.10;0.45;;;17.30;55.20;;;;;;5107364;28;47016;-87
2022/01/31 03:48:18;;;;;;;2.45;0.50;;;17.40;54.50;;;;;;5089742;28;45258;-87
2022/01/31 03:50:49;;;;;;;1.20;0.43;;;16.70;51.80;;;;;;5107906;28;45120;-87
2022/01/31 03:53:24;;;;;;;1.20;0.40;;;16.90;54.20;;;;;;5107155;28;45078;-87
2022/01/31 03:56:00;;;;;;;0.55;0.40;;;17.70;52.90;;;;;;5090175;28;45767;-87
2022/01/31 03:58:40;;;;;;;1.05;0.63;;;19.10;55.40;;;;;;5107356;28;45626;-88
2022/01/31 04:01:23;;;;;;;1.25;0.47;;;17.10;54.80;;;;;;5107898;28;45209;-87
2022/01/31 04:03:58;;;;;;;1.08;0.40;;;17.20;54.40;;;;;;5108291;28;45247;-88
2022/01/31 04:06:29;;;;;;;2.05;0.40;;;17.20;51.40;;;;;;5090326;28;46581;-87
2022/01/31 04:09:01;;;;;;;0.63;0.30;;;17.00;51.20;;;;;;5107695;28;45077;-87
2022/01/31 04:11:29;;;;;;;1.40;0.35;;;16.90;53.60;;;;;;5107536;28;45590;-88
2022/01/31 04:14:01;;;;;;;1.73;0.60;;;18.00;56.60;;;;;;5110349;27;44963;-87
2022/01/31 04:16:31;;;;;;;1.00;0.40;;;17.10;51.50;;;;;;5124872;27;47243;-88
2022/01/31 04:19:00;;;;;;;2.22;0.55;;;17.30;54.80;;;;;;5117782;27;45132;-88
2022/01/31 04:21:33;;;;;;;0.63;0.40;;;17.10;52.60;;;;;;5108216;28;44803;-88
2022/01/31 04:24:20;;;;;;;1.52;0.55;;;17.10;54.70;;;;;;5106914;28;45037;-88
2022/01/31 04:26:57;;;;;;;0.73;0.20;;;17.20;54.30;;;;;;5108606;28;45470;-88
2022/01/31 04:29:51;;;;;;;1.38;0.30;;;17.00;51.60;;;;;;5109550;27;45160;-87
2022/01/31 04:32:22;;;;;;;0.80;0.40;;;17.50;55.10;;;;;;5108043;28;44859;-88
2022/01/31 04:35:01;;;;;;;0.47;0.30;;;16.70;51.50;;;;;;5107563;28;44889;-87
2022/01/31 04:37:32;;;;;;;0.93;0.68;;;17.20;54.60;;;;;;5107238;28;47331;-88
2022/01/31 04:40:12;;;;;;;1.20;0.43;;;17.30;52.20;;;;;;5090016;28;44710;-88
2022/01/31 04:42:44;;;;;;;0.77;0.30;;;16.90;51.80;;;;;;5090382;28;44782;-88
2022/01/31 04:45:14;;;;;;;1.08;0.32;;;16.90;52.00;;;;;;5107893;28;44859;-87
2022/01/31 04:47:44;;;;;;;0.60;0.30;;;17.30;52.50;;;;;;5089327;28;46741;-88
2022/01/31 04:50:16;;;;;;;0.75;0.30;;;16.90;54.50;;;;;;5106795;28;45211;-88
2022/01/31 04:52:47;;;;;;;1.30;0.40;;;17.10;56.40;;;;;;5106505;27;45148;-87
2022/01/31 04:55:35;;;;;;;2.17;0.55;;;16.90;56.00;;;;;;5107151;28;44860;-88
2022/01/31 04:58:06;;;;;;;0.65;0.28;;;17.10;55.70;;;;;;5073360;28;45636;-88
2022/01/31 05:00:38;;;;;;;0.63;0.50;;;15.60;51.30;;;;;;5101119;27;45804;-88
2022/01/31 05:03:12;;;;;;;1.98;0.50;;;16.90;52.60;;;;;;5107607;27;44933;-87
2022/01/31 05:05:44;;;;;;;0.40;0.40;;;17.10;56.10;;;;;;5108498;27;45171;-86
2022/01/31 05:08:13;;;;;;;0.68;0.40;;;17.10;56.00;;;;;;5089996;28;45389;-87
2022/01/31 05:10:52;;;;;;;1.42;0.30;;;15.70;52.50;;;;;;5105664;28;45190;-87
2022/01/31 05:13:27;;;;;;;2.90;0.63;;;17.30;56.40;;;;;;5105688;28;45313;-87
2022/01/31 05:18:37;;;;;;;0.40;0.30;;;16.90;52.80;;;;;;5122197;22;45210;-87
2022/01/31 05:21:10;;;;;;;1.20;0.43;;;17.30;55.00;;;;;;5106411;28;45278;-87
2022/01/31 05:23:43;;;;;;;1.10;0.40;;;17.20;52.90;;;;;;5106155;28;45110;-87
2022/01/31 05:29:07;;;;;;;1.30;0.60;;;17.10;53.10;;;;;;5091016;28;45748;-87
2022/01/31 05:31:36;;;;;;;1.45;0.40;;;17.10;55.50;;;;;;5106399;27;44903;-87
2022/01/31 05:34:07;;;;;;;1.20;0.30;;;17.30;55.10;;;;;;5105849;28;44812;-87
2022/01/31 05:36:37;;;;;;;1.58;0.43;;;17.30;53.80;;;;;;5109832;28;45242;-87
2022/01/31 05:39:07;;;;;;;0.95;0.38;;;17.20;55.00;;;;;;5092127;28;46711;-87
2022/01/31 05:41:44;;;;;;;0.65;0.30;;;17.20;55.50;;;;;;5107325;28;45257;-87
2022/01/31 05:44:17;;;;;;;2.55;0.50;;;17.20;53.80;;;;;;5109973;28;44821;-87
2022/01/31 05:46:56;;;;;;;0.90;0.40;;;16.90;52.70;;;;;;5092664;28;45539;-87
2022/01/31 05:49:32;;;;;;;1.20;0.57;;;17.00;54.80;;;;;;5103466;28;47142;-87
2022/01/31 05:52:04;;;;;;;0.20;0.20;;;16.90;53.60;;;;;;5080714;28;45265;-87
2022/01/31 05:54:44;;;;;;;1.10;0.20;;;16.30;54.50;;;;;;5114119;27;45201;-87
2022/01/31 05:57:17;;;;;;;0.77;0.40;;;16.80;54.00;;;;;;5114642;27;44873;-87
2022/01/31 05:59:53;;;;;;;1.33;0.60;;;16.40;55.00;;;;;;5103478;27;45749;-88
2022/01/31 06:02:24;;;;;;;1.00;0.38;;;16.90;54.90;;;;;;5130385;27;44745;-88
2022/01/31 06:05:13;;;;;;;2.22;0.50;;;17.40;53.60;;;;;;5133560;27;44755;-88
2022/01/31 06:07:50;;;;;;;1.50;0.50;;;17.00;53.10;;;;;;5114892;27;44829;-89
2022/01/31 06:10:23;;;;;;;3.60;0.73;;;18.30;54.50;;;;;;5114192;27;45491;-92
2022/01/31 06:13:04;;;;;;;1.67;0.30;;;14.90;52.50;;;;;;5114463;27;44692;-90
2022/01/31 06:15:34;;;;;;;1.13;0.50;;;17.20;53.60;;;;;;5114771;27;44687;-90
2022/01/31 06:18:05;;;;;;;1.23;0.40;;;17.00;55.50;;;;;;5113916;27;45270;-90
2022/01/31 06:20:34;;;;;;;1.30;0.30;;;15.40;52.50;;;;;;5114282;27;47319;-90
2022/01/31 06:23:08;;;;;;;2.20;0.50;;;16.60;54.00;;;;;;5114449;27;44529;-90
2022/01/31 06:25:39;;;;;;;1.80;0.47;;;16.90;54.80;;;;;;5111016;27;44986;-87
2022/01/31 06:28:13;;;;;;;1.50;0.65;;;17.10;55.40;;;;;;5109141;27;44944;-86
2022/01/31 06:30:58;;;;;;;1.55;0.50;;;16.60;52.70;;;;;;5108685;28;45473;-88
2022/01/31 06:33:28;;;;;;;1.63;0.50;;;16.00;51.80;;;;;;5109753;28;44786;-87
2022/01/31 06:36:03;;;;;;;1.05;0.30;;;17.00;53.40;;;;;;5109286;28;44975;-87
2022/01/31 06:38:46;;;;;;;1.55;0.50;;;17.00;55.40;;;;;;5108109;28;45157;-87
2022/01/31 06:41:26;;;;;;;1.45;0.50;;;17.50;53.10;;;;;;5110721;27;45997;-89
2022/01/31 06:44:14;;;;;;;1.58;0.40;;;17.20;53.80;;;;;;5114025;27;45062;-89
2022/01/31 06:46:49;;;;;;;2.63;0.60;;;16.90;52.80;;;;;;5113501;27;44807;-89
2022/01/31 06:49:41;;;;;;;0.90;0.40;;;16.80;53.70;;;;;;5113483;27;45174;-89
2022/01/31 06:52:13;;;;;;;1.70;0.55;;;17.00;52.90;;;;;;5112593;27;45595;-90
2022/01/31 06:54:49;;;;;;;2.58;0.57;;;16.90;53.60;;;;;;5095980;27;44806;-90
2022/01/31 07:02:43;;;;;;;1.50;0.68;;;16.80;53.30;;;;;;5455407;22;46320;-87
2022/01/31 07:05:13;;;;;;;1.95;0.70;;;17.00;55.90;;;;;;5094823;28;44568;-89
2022/01/31 07:07:42;;;;;;;13.85;1.80;;;17.70;57.00;;;;;;5092090;27;44778;-84
2022/01/31 07:10:14;;;;;;;13.55;1.88;;;17.50;55.00;;;;;;5093203;27;44741;-87
2022/01/31 07:15:30;;;;;;;4.65;1.00;;;16.90;54.00;;;;;;5086550;28;45201;-87
2022/01/31 07:17:59;;;;;;;4.05;0.90;;;17.00;54.20;;;;;;5082709;28;45412;-86
2022/01/31 07:20:36;;;;;;;2.85;0.65;;;16.80;56.70;;;;;;5084520;28;45121;-87
2022/01/31 07:23:16;;;;;;;2.50;0.70;;;17.00;53.70;;;;;;5069053;28;45342;-88
2022/01/31 07:25:46;;;;;;;2.10;0.57;;;17.00;55.80;;;;;;5085270;28;45334;-88
2022/01/31 07:28:16;;;;;;;2.35;0.75;;;17.30;55.40;;;;;;5088794;28;44737;-88
2022/01/31 07:30:51;;;;;;;3.83;0.82;;;17.20;56.50;;;;;;5085449;28;44850;-88
2022/01/31 07:33:23;;;;;;;2.25;0.73;;;17.10;56.30;;;;;;5067327;28;45672;-87
2022/01/31 07:35:53;;;;;;;4.03;0.63;;;17.40;57.00;;;;;;5063418;28;45399;-87
2022/01/31 07:38:21;;;;;;;1.83;0.43;;;16.80;55.80;;;;;;5085500;28;45065;-88
2022/01/31 07:40:57;;;;;;;4.65;0.45;;;17.30;56.50;;;;;;5088375;28;45005;-89
2022/01/31 07:43:25;;;;;;;2.70;0.50;;;17.10;56.60;;;;;;5077699;28;47615;-87
2022/01/31 07:45:54;;;;;;;1.58;0.55;;;17.20;56.30;;;;;;5076637;28;45308;-87
2022/01/31 07:48:25;;;;;;;0.45;0.30;;;17.00;56.10;;;;;;5078401;28;45320;-87
2022/01/31 07:50:54;;;;;;;2.00;0.60;;;16.90;56.20;;;;;;5076504;28;45302;-87
2022/01/31 07:53:22;;;;;;;1.17;0.52;;;17.00;55.80;;;;;;5074951;28;45645;-88
2022/01/31 07:55:50;;;;;;;1.30;0.50;;;17.20;56.10;;;;;;5075264;28;45234;-87
2022/01/31 07:58:18;;;;;;;2.13;0.60;;;16.90;55.20;;;;;;5074780;28;45233;-88
2022/01/31 08:00:46;;;;;;;1.70;0.45;;;17.40;57.00;;;;;;5070913;28;45078;-90
2022/01/31 08:03:14;;;;;;;1.85;0.60;;;18.70;55.90;;;;;;5077755;28;45591;-90
2022/01/31 08:05:44;;;;;;;0.95;0.40;;;17.30;56.60;;;;;;5077379;28;45475;-89
2022/01/31 08:08:12;;;;;;;1.67;0.77;;;17.20;54.00;;;;;;5076388;28;45110;-88
2022/01/31 08:10:39;;;;;;;1.67;0.60;;;17.20;55.70;;;;;;5077423;28;45105;-89
2022/01/31 08:13:08;;;;;;;2.65;0.50;;;17.90;56.60;;;;;;5075931;28;46993;-88
2022/01/31 08:15:45;;;;;;;0.95;0.60;;;17.20;56.50;;;;;;5077177;28;45342;-90
2022/01/31 08:18:17;;;;;;;2.10;0.80;;;17.00;55.50;;;;;;5069893;28;45249;-88
2022/01/31 08:20:47;;;;;;;2.10;0.80;;;17.90;56.20;;;;;;5076203;28;45698;-88
2022/01/31 08:23:15;;;;;;;2.65;0.73;;;17.20;55.50;;;;;;5076324;28;47570;-87
2022/01/31 08:25:47;;;;;;;1.02;0.30;;;17.50;57.10;;;;;;5072319;28;45835;-88
2022/01/31 08:28:14;;;;;;;2.50;0.63;;;18.50;58.00;;;;;;5056431;28;45240;-87
2022/01/31 08:30:49;;;;;;;2.03;0.57;;;17.10;56.60;;;;;;5075449;28;45375;-88
2022/01/31 08:33:32;;;;;;;1.45;0.50;;;18.40;57.40;;;;;;5059898;28;46866;-87
2022/01/31 08:36:01;;;;;;;2.03;0.68;;;17.10;55.60;;;;;;5075119;28;45213;-88
2022/01/31 08:38:29;;;;;;;0.70;0.30;;;17.30;56.60;;;;;;5076822;28;45129;-87
2022/01/31 08:40:57;;;;;;;1.83;0.52;;;17.70;56.40;;;;;;5075448;28;45359;-87
2022/01/31 08:43:25;;;;;;;3.08;0.90;;;17.80;57.00;;;;;;5078576;28;45524;-89
2022/01/31 08:45:57;;;;;;;4.15;0.50;;;15.40;55.30;;;;;;5077310;28;45333;-87
2022/01/31 08:48:24;;;;;;;0.95;0.43;;;17.10;56.60;;;;;;5076149;28;45133;-89
2022/01/31 08:50:52;;;;;;;1.85;0.75;;;18.30;56.60;;;;;;5076654;28;45172;-88
2022/01/31 08:53:22;;;;;;;1.65;0.70;;;19.00;58.20;;;;;;5064565;28;45786;-89
2022/01/31 08:55:53;;;;;;;2.60;0.40;;;17.00;55.70;;;;;;5076727;28;45181;-88
2022/01/31 08:58:21;;;;;;;2.88;0.70;;;15.80;54.10;;;;;;5075901;28;45314;-86
2022/01/31 09:00:51;;;;;;;2.03;0.52;;;18.10;55.70;;;;;;5078770;28;44889;-86
2022/01/31 09:03:39;;;;;;;1.55;0.50;;;17.10;54.80;;;;;;5077064;28;45275;-88
2022/01/31 09:06:11;;;;;;;3.78;0.98;;;18.40;55.30;;;;;;5067154;28;45244;-88
2022/01/31 09:08:43;;;;;;;1.90;0.60;;;16.80;53.70;;;;;;5070336;28;45140;-90
2022/01/31 09:11:13;;;;;;;2.83;0.50;;;16.00;55.30;;;;;;5081080;28;45142;-89
2022/01/31 09:13:41;;;;;;;1.50;0.40;;;16.80;57.80;;;;;;5079531;28;45682;-86
2022/01/31 09:16:09;;;;;;;2.15;0.75;;;16.90;56.70;;;;;;5080129;28;45154;-88
2022/01/31 09:18:36;;;;;;;1.88;0.55;;;16.90;57.10;;;;;;5081120;28;45157;-89
2022/01/31 09:21:05;;;;;;;1.63;0.40;;;17.10;57.10;;;;;;5081156;28;45311;-88
2022/01/31 09:23:32;;;;;;;1.85;0.55;;;17.20;57.00;;;;;;5080459;28;45755;-88
2022/01/31 09:26:02;;;;;;;2.13;0.68;;;17.20;57.10;;;;;;5081500;28;45461;-89
2022/01/31 09:28:31;;;;;;;1.15;0.50;;;17.00;57.40;;;;;;5082302;28;45328;-90
2022/01/31 09:30:59;;;;;;;3.42;1.10;;;17.20;57.90;;;;;;5079424;28;45339;-87
2022/01/31 09:33:27;;;;;;;2.15;0.70;;;17.40;57.00;;;;;;5079541;28;47636;-88
2022/01/31 09:35:54;;;;;;;3.63;0.80;;;16.90;57.10;;;;;;5059418;28;45898;-83
2022/01/31 09:38:24;;;;;;;14.80;1.88;;;17.00;58.40;;;;;;5066617;28;45262;-88
2022/01/31 09:40:52;;;;;;;4.97;0.88;;;16.90;57.70;;;;;;5083163;28;45152;-84
2022/01/31 09:43:56;;;;;;;4.55;1.27;;;16.90;55.30;;;;;;5078925;28;47429;-87
2022/01/31 09:49:22;;;;;;;8.52;1.00;;;16.90;59.50;;;;;;5075616;28;45264;-86
2022/01/31 09:51:50;;;;;;;1.98;0.68;;;17.00;58.60;;;;;;5074170;28;45308;-85
2022/01/31 09:54:17;;;;;;;5.43;0.93;;;17.10;59.20;;;;;;5068020;28;48254;-86
2022/01/31 09:56:46;;;;;;;4.55;0.95;;;17.30;60.50;;;;;;5077704;28;45410;-86
2022/01/31 09:59:17;;;;;;;4.68;0.98;;;17.30;61.40;;;;;;5071083;28;45157;-86
2022/01/31 10:01:47;;;;;;;3.28;0.80;;;16.80;61.30;;;;;;5071562;28;45567;-86
2022/01/31 10:04:18;;;;;;;2.90;1.05;;;17.60;62.70;;;;;;5079784;28;45407;-87
2022/01/31 10:06:48;;;;;;;2.28;0.80;;;17.90;64.60;;;;;;5077539;28;45343;-87
2022/01/31 10:09:17;;;;;;;3.30;1.02;;;18.00;66.40;;;;;;5069606;28;44995;-86
2022/01/31 10:11:49;;;;;;;2.50;0.77;;;18.30;66.10;;;;;;5080409;28;45238;-87
2022/01/31 10:17:11;;;;;;;3.70;1.02;;;18.50;65.50;;;;;;5078406;28;45126;-85
2022/01/31 10:19:40;;;;;;;3.25;1.10;;;18.20;65.90;;;;;;5082025;28;44790;-85
2022/01/31 10:22:09;;;;;;;6.10;1.33;;;18.30;64.80;;;;;;5080827;28;45202;-85
2022/01/31 10:24:40;;;;;;;6.45;1.30;;;18.30;64.30;;;;;;5075064;28;47345;-86
2022/01/31 10:27:13;;;;;;;4.65;1.25;;;20.30;67.00;;;;;;5081312;28;45232;-85
2022/01/31 10:29:43;;;;;;;4.28;1.25;;;18.40;63.90;;;;;;5081268;28;45168;-85
2022/01/31 10:32:12;;;;;;;3.60;1.00;;;18.30;63.70;;;;;;5082845;28;45225;-85
2022/01/31 10:34:46;;;;;;;4.63;0.80;;;18.40;63.10;;;;;;5075685;28;48443;-85
2022/01/31 10:37:18;;;;;;;2.97;1.38;;;18.30;63.30;;;;;;5083128;28;45628;-86
2022/01/31 10:51:42;;;;;;;5.28;1.33;;;17.50;61.90;;;;;;5068704;28;45165;-85
2022/01/31 10:54:12;;;;;;;2.13;1.00;;;17.40;61.70;;;;;;5086979;28;45212;-84
2022/01/31 10:56:42;;;;;;;4.82;1.20;;;17.30;61.90;;;;;;5091387;28;45598;-86
2022/01/31 10:59:12;;;;;;;2.17;0.70;;;17.30;62.40;;;;;;5087930;28;45888;-87
2022/01/31 11:01:42;;;;;;;1.85;0.60;;;17.20;62.40;;;;;;5077563;28;45295;-87
2022/01/31 11:04:14;;;;;;;2.90;1.02;;;17.20;63.60;;;;;;5078162;28;44807;-87
2022/01/31 11:06:43;;;;;;;2.15;0.70;;;17.60;64.10;;;;;;5062836;28;45870;-87
2022/01/31 11:09:12;;;;;;;2.80;0.98;;;17.50;65.20;;;;;;5078329;28;45187;-88
2022/01/31 11:11:42;;;;;;;4.07;0.75;;;17.70;64.80;;;;;;5078376;28;45255;-87
2022/01/31 11:14:11;;;;;;;3.97;0.70;;;17.20;63.50;;;;;;5079426;28;45357;-86
2022/01/31 11:16:42;;;;;;;1.50;0.68;;;17.60;64.60;;;;;;5065124;28;47639;-85
2022/01/31 11:19:11;;;;;;;2.78;0.73;;;17.10;61.30;;;;;;5071379;28;44936;-85
2022/01/31 11:21:39;;;;;;;2.03;0.70;;;17.10;61.30;;;;;;5081196;28;45246;-84
2022/01/31 11:24:17;;;;;;;1.75;0.60;;;17.10;61.00;;;;;;5082757;28;45207;-85
2022/01/31 11:26:49;;;;;;;2.22;0.70;;;17.10;61.40;;;;;;5082285;28;46382;-84
2022/01/31 11:29:17;;;;;;;2.67;0.90;;;17.10;61.60;;;;;;5083918;28;45204;-83
2022/01/31 11:31:46;;;;;;;5.32;1.10;;;17.00;61.60;;;;;;5094587;28;45010;-84
2022/01/31 11:34:14;;;;;;;1.67;0.70;;;17.10;61.60;;;;;;5081325;28;45241;-85
2022/01/31 11:36:43;;;;;;;1.67;0.70;;;17.00;61.50;;;;;;5083594;28;46569;-86
2022/01/31 11:39:12;;;;;;;2.20;0.70;;;17.00;61.80;;;;;;5079483;28;45148;-86
2022/01/31 11:41:44;;;;;;;2.17;0.88;;;17.00;64.70;;;;;;5093527;28;45256;-86
2022/01/31 11:44:19;;;;;;;3.72;0.93;;;16.90;64.00;;;;;;5079952;28;45138;-86
2022/01/31 11:46:49;;;;;;;2.22;0.70;;;17.00;61.80;;;;;;5091357;28;47880;-85
2022/01/31 11:49:17;;;;;;;3.28;0.90;;;17.00;61.80;;;;;;5102223;28;45380;-84
2022/01/31 11:52:02;;;;;;;1.75;0.70;;;17.00;61.70;;;;;;5090257;28;45192;-85
2022/01/31 11:54:29;;;;;;;2.75;0.73;;;17.00;61.80;;;;;;5078968;28;44798;-85
2022/01/31 11:56:56;;;;;;;3.42;0.95;;;17.00;61.50;;;;;;5079988;28;45156;-84
2022/01/31 11:59:24;;;;;;;3.58;1.17;;;17.00;61.50;;;;;;5097807;28;45314;-85
2022/01/31 12:01:54;;;;;;;2.60;0.93;;;16.90;61.10;;;;;;5082275;28;45427;-86
2022/01/31 12:04:25;;;;;;;28.42;3.00;;;16.90;62.00;;;;;;5078934;28;45179;-87
2022/01/31 12:06:52;;;;;;;12.43;1.80;;;17.00;62.80;;;;;;5077477;28;47968;-86
2022/01/31 12:09:24;;;;;;;5.28;0.90;;;17.00;61.50;;;;;;5085578;28;45941;-87
2022/01/31 12:12:04;;;;;;;6.57;1.10;;;17.00;62.10;;;;;;5086517;28;45227;-86
2022/01/31 12:14:43;;;;;;;5.03;1.27;;;17.00;61.90;;;;;;5076221;28;45123;-85
2022/01/31 12:17:58;;;;;;;5.05;1.48;;;17.00;62.00;;;;;;5086063;28;48609;-84
2022/01/31 12:21:59;;;;;;;4.47;1.10;;;17.00;62.20;;;;;;5081074;28;45433;-84
2022/01/31 12:23:43;;;;;;;3.97;1.05;;;17.00;62.10;;;;;;5080618;28;45314;-84
2022/01/31 12:26:36;;;;;;;2.50;0.85;;;17.00;62.00;;;;;;5080544;28;45253;-85
2022/01/31 12:29:08;;;;;;;4.30;1.40;;;16.90;62.10;;;;;;5060173;28;47299;-84
2022/01/31 12:31:42;;;;;;;5.10;1.05;;;17.00;62.20;;;;;;5060848;28;45250;-84
2022/01/31 12:34:34;;;;;;;7.10;1.00;;;17.00;62.10;;;;;;5071933;28;45276;-84
2022/01/31 12:37:05;;;;;;;6.75;1.17;;;17.00;62.50;;;;;;5080031;28;45361;-85
2022/01/31 12:39:57;;;;;;;3.50;0.93;;;17.00;62.40;;;;;;5079439;28;47338;-86
2022/01/31 12:42:47;;;;;;;5.88;1.27;;;16.90;63.10;;;;;;5079067;28;45657;-85
2022/01/31 12:45:16;;;;;;;3.83;0.98;;;16.90;61.70;;;;;;5082685;28;45101;-84
2022/01/31 12:48:20;;;;;;;2.58;0.88;;;16.90;62.10;;;;;;5084506;28;45164;-85
2022/01/31 12:51:07;;;;;;;4.30;1.20;;;17.00;61.80;;;;;;5083923;28;47891;-85
2022/01/31 12:53:53;;;;;;;5.05;1.02;;;17.00;62.20;;;;;;5074488;28;45216;-86
2022/01/31 12:56:25;;;;;;;3.75;1.02;;;17.00;61.70;;;;;;5060781;28;45250;-87
2022/01/31 12:58:56;;;;;;;2.38;0.90;;;16.90;62.70;;;;;;5077144;28;45481;-89
2022/01/31 13:01:25;;;;;;;2.72;1.08;;;17.10;63.00;;;;;;5079401;28;47899;-86
2022/01/31 13:03:54;;;;;;;3.42;1.23;;;17.10;64.90;;;;;;5079470;28;45064;-87
2022/01/31 13:06:27;;;;;;;3.40;1.02;;;17.40;65.00;;;;;;5073576;28;44785;-86
2022/01/31 13:08:54;;;;;;;2.80;1.00;;;17.00;61.60;;;;;;5081497;28;45377;-85
2022/01/31 13:11:22;;;;;;;2.92;0.65;;;17.10;63.00;;;;;;5073513;28;46710;-86
2022/01/31 13:13:49;;;;;;;4.50;1.17;;;17.00;61.80;;;;;;5081527;28;45381;-86
2022/01/31 13:16:16;;;;;;;2.45;1.00;;;17.00;62.10;;;;;;5081581;28;45146;-86
2022/01/31 13:18:45;;;;;;;2.47;0.82;;;17.00;61.90;;;;;;5080317;28;46362;-87
2022/01/31 13:21:13;;;;;;;3.03;0.88;;;17.00;62.30;;;;;;5078007;28;48361;-86
2022/01/31 13:23:43;;;;;;;6.50;1.17;;;17.00;61.70;;;;;;5081792;28;45552;-85
2022/01/31 13:26:12;;;;;;;3.00;1.10;;;16.90;61.50;;;;;;5075653;28;45291;-85
2022/01/31 13:28:39;;;;;;;1.85;1.02;;;16.90;61.70;;;;;;5078689;28;45109;-85
2022/01/31 13:31:06;;;;;;;4.03;0.90;;;16.90;61.70;;;;;;5080237;28;47568;-85
2022/01/31 13:33:43;;;;;;;4.40;0.90;;;16.90;61.40;;;;;;5081791;28;45193;-85
2022/01/31 13:36:10;;;;;;;3.72;1.05;;;16.90;61.40;;;;;;5071292;28;45138;-86
2022/01/31 13:38:37;;;;;;;4.97;1.15;;;16.90;61.50;;;;;;5066905;28;45228;-87
2022/01/31 13:41:06;;;;;;;3.55;0.90;;;16.90;62.50;;;;;;5081037;28;45311;-86
2022/01/31 13:43:36;;;;;;;3.38;1.00;;;16.90;64.90;;;;;;5080236;28;45322;-86
2022/01/31 13:46:11;;;;;;;3.97;0.98;;;16.90;64.90;;;;;;5079951;28;45270;-87
2022/01/31 13:48:49;;;;;;;4.45;0.82;;;16.90;64.50;;;;;;5078074;28;45208;-87
2022/01/31 13:51:25;;;;;;;3.42;0.88;;;16.90;65.90;;;;;;5079684;28;45168;-87